Time;durP1;ratioP1;P1;durP2;ratioP2;P2;SDS_P1;SDS_P2;PMS_P1;PMS_P2;Temp;Humidity;BMP_temperature;BMP_pressure;BME280_temperature;BME280_humidity;BME280_pressure;Samples;Min_cycle;Max_cycle;Signal;HPM_P1;HPM_P2
2022/11/05 00:17:23;;;;;;;;;5.40;5.40;;;;;;;;5181492;28;8922;-80
2022/11/05 00:19:54;;;;;;;;;5.80;5.80;;;;;;;;5165382;28;8826;-79
2022/11/05 00:25:15;;;;;;;;;5.20;4.80;;;;;;;;5181225;28;8811;-83
2022/11/05 00:27:48;;;;;;;;;1.00;1.00;;;;;;;;5181422;28;8768;-84
2022/11/05 00:30:22;;;;;;;;;7.80;7.40;;;;;;;;5164771;28;8864;-82
2022/11/05 00:32:53;;;;;;;;;9.20;9.20;;;;;;;;5148691;28;8803;-78
2022/11/05 00:35:24;;;;;;;;;0.20;0.20;;;;;;;;5198410;28;8799;-79
2022/11/05 00:38:13;;;;;;;;;1.00;1.00;;;;;;;;5222117;28;8775;-82
2022/11/05 00:40:45;;;;;;;;;1.20;1.20;;;;;;;;5222358;28;8803;-83
2022/11/05 00:46:05;;;;;;;;;5.60;5.00;;;;;;;;5222242;28;8821;-87
2022/11/05 00:51:26;;;;;;;;;2.00;2.00;;;;;;;;5182884;28;8834;-83
2022/11/05 00:53:57;;;;;;;;;5.00;5.00;;;;;;;;5187029;28;8803;-84
2022/11/05 00:56:28;;;;;;;;;8.40;8.40;;;;;;;;5184845;28;8857;-84
2022/11/05 00:58:59;;;;;;;;;8.00;8.00;;;;;;;;5201101;28;8773;-81
2022/11/05 01:01:30;;;;;;;;;4.00;4.00;;;;;;;;5184924;28;9124;-78
2022/11/05 01:04:01;;;;;;;;;5.20;5.20;;;;;;;;5184971;28;8828;-79
2022/11/05 01:06:32;;;;;;;;;6.60;6.60;;;;;;;;5184853;28;8878;-79
2022/11/05 01:09:03;;;;;;;;;6.60;6.60;;;;;;;;5201095;28;8801;-79
2022/11/05 01:11:35;;;;;;;;;2.60;2.60;;;;;;;;5184748;28;8785;-78
2022/11/05 01:14:08;;;;;;;;;5.60;5.00;;;;;;;;5173991;28;8790;-78
2022/11/05 01:16:40;;;;;;;;;5.20;5.00;;;;;;;;5188112;28;8925;-79
2022/11/05 01:19:12;;;;;;;;;11.60;11.60;;;;;;;;5188498;28;8819;-79
2022/11/05 01:21:44;;;;;;;;;6.80;5.60;;;;;;;;5188659;28;8906;-82
2022/11/05 01:24:15;;;;;;;;;12.20;12.20;;;;;;;;5221457;28;8949;-79
2022/11/05 01:26:46;;;;;;;;;9.00;8.80;;;;;;;;5221975;27;8783;-80
2022/11/05 01:29:17;;;;;;;;;4.80;4.40;;;;;;;;5212916;27;8809;-79
2022/11/05 01:31:48;;;;;;;;;5.00;5.00;;;;;;;;5184645;28;8765;-82
2022/11/05 01:34:19;;;;;;;;;5.60;5.60;;;;;;;;5192684;28;8794;-86
2022/11/05 01:36:50;;;;;;;;;5.20;5.20;;;;;;;;5204904;28;8766;-82
2022/11/05 01:39:21;;;;;;;;;3.00;3.00;;;;;;;;5221124;28;8863;-81
2022/11/05 01:42:19;;;;;;;;;5.60;5.60;;;;;;;;5221483;28;8791;-82
2022/11/05 01:44:52;;;;;;;;;1.60;1.60;;;;;;;;5221128;28;8818;-80
2022/11/05 01:47:30;;;;;;;;;0.60;0.60;;;;;;;;5204845;28;8771;-79
2022/11/05 01:50:04;;;;;;;;;3.80;3.80;;;;;;;;5184129;28;8788;-79
2022/11/05 01:52:35;;;;;;;;;2.00;2.00;;;;;;;;5180232;28;8760;-79
2022/11/05 01:55:08;;;;;;;;;8.40;7.00;;;;;;;;5200078;28;8795;-81
2022/11/05 01:58:00;;;;;;;;;4.20;4.20;;;;;;;;5222771;28;8770;-79
2022/11/05 02:00:31;;;;;;;;;4.00;3.80;;;;;;;;5204440;28;8775;-77
2022/11/05 02:03:02;;;;;;;;;1.00;1.00;;;;;;;;5220947;28;8814;-77
2022/11/05 02:05:33;;;;;;;;;3.20;3.20;;;;;;;;5204517;28;8802;-77
2022/11/05 02:08:06;;;;;;;;;6.00;6.00;;;;;;;;5203780;28;8791;-78
2022/11/05 02:10:38;;;;;;;;;4.60;4.60;;;;;;;;5204529;28;8907;-78
2022/11/05 02:13:09;;;;;;;;;2.60;2.60;;;;;;;;5186133;28;8783;-77
2022/11/05 02:16:07;;;;;;;;;2.00;2.00;;;;;;;;5185058;28;8793;-78
2022/11/05 02:18:49;;;;;;;;;8.00;6.80;;;;;;;;5199617;28;8934;-79
2022/11/05 02:21:39;;;;;;;;;7.80;7.80;;;;;;;;5167419;28;8794;-78
2022/11/05 02:24:29;;;;;;;;;8.60;8.60;;;;;;;;5201333;28;8985;-78
2022/11/05 02:27:10;;;;;;;;;9.60;9.60;;;;;;;;5167621;28;8769;-79
2022/11/05 02:29:51;;;;;;;;;8.00;7.20;;;;;;;;5202429;28;8789;-79
2022/11/05 02:32:33;;;;;;;;;5.80;5.40;;;;;;;;5203539;28;9532;-79
2022/11/05 02:35:04;;;;;;;;;8.60;8.20;;;;;;;;5205110;28;8807;-80
2022/11/05 02:37:40;;;;;;;;;7.25;7.25;;;;;;;;5191207;28;8791;-86
2022/11/05 02:40:30;;;;;;;;;6.00;6.00;;;;;;;;5207874;28;10142;-86
2022/11/05 02:43:19;;;;;;;;;4.60;4.60;;;;;;;;5224273;28;9551;-82
2022/11/05 02:45:50;;;;;;;;;4.80;4.80;;;;;;;;5225713;28;9608;-84
2022/11/05 02:48:40;;;;;;;;;5.00;5.00;;;;;;;;5224083;28;8795;-84
2022/11/05 02:51:37;;;;;;;;;12.80;12.40;;;;;;;;5223860;28;8766;-80
2022/11/05 02:54:15;;;;;;;;;7.40;7.20;;;;;;;;5214485;28;8832;-77
2022/11/05 02:56:49;;;;;;;;;8.40;8.40;;;;;;;;5224984;28;8783;-77
2022/11/05 02:59:20;;;;;;;;;8.20;8.20;;;;;;;;5207372;28;8799;-77
2022/11/05 03:01:51;;;;;;;;;3.00;2.00;;;;;;;;5223882;28;8803;-79
2022/11/05 03:04:41;;;;;;;;;5.00;5.00;;;;;;;;5202572;28;11524;-78
2022/11/05 03:07:28;;;;;;;;;9.80;9.80;;;;;;;;5193564;28;8832;-75
2022/11/05 03:10:08;;;;;;;;;17.20;17.00;;;;;;;;5200381;28;8781;-77
2022/11/05 03:12:51;;;;;;;;;18.20;18.20;;;;;;;;5166864;28;8874;-77
2022/11/05 03:15:37;;;;;;;;;25.60;25.60;;;;;;;;5184857;28;8815;-77
2022/11/05 03:18:42;;;;;;;;;32.80;31.60;;;;;;;;5202195;28;8823;-77
2022/11/05 03:21:46;;;;;;;;;11.20;11.20;;;;;;;;5204053;28;8810;-77
2022/11/05 03:24:27;;;;;;;;;2.40;2.40;;;;;;;;5186475;28;8805;-77
2022/11/05 03:27:19;;;;;;;;;9.00;9.00;;;;;;;;5203326;28;8765;-78
2022/11/05 03:29:57;;;;;;;;;5.80;5.60;;;;;;;;5189782;28;8829;-77
2022/11/05 03:32:31;;;;;;;;;12.60;12.60;;;;;;;;5222967;28;8782;-77
2022/11/05 03:35:11;;;;;;;;;9.40;9.40;;;;;;;;5165582;28;8819;-77
2022/11/05 03:37:45;;;;;;;;;7.60;7.60;;;;;;;;5166479;28;8825;-77
2022/11/05 03:40:17;;;;;;;;;5.80;5.80;;;;;;;;5165674;28;9684;-77
2022/11/05 03:42:56;;;;;;;;;8.20;8.20;;;;;;;;5165958;28;8780;-77
2022/11/05 03:45:30;;;;;;;;;4.40;4.40;;;;;;;;5165699;28;8930;-78
2022/11/05 03:48:03;;;;;;;;;20.40;17.80;;;;;;;;5178810;28;8770;-76
2022/11/05 03:50:40;;;;;;;;;9.20;9.20;;;;;;;;5190020;28;8921;-78
2022/11/05 03:53:16;;;;;;;;;23.60;23.40;;;;;;;;5215833;28;8901;-77
2022/11/05 03:55:53;;;;;;;;;12.60;12.60;;;;;;;;5185771;28;8808;-78
2022/11/05 03:58:25;;;;;;;;;9.20;9.20;;;;;;;;5185644;28;8818;-78
2022/11/05 04:00:58;;;;;;;;;1.80;1.80;;;;;;;;5202309;28;8808;-77
2022/11/05 04:03:35;;;;;;;;;8.40;8.40;;;;;;;;5165230;28;8799;-79
2022/11/05 04:14:57;;;;;;;;;6.00;6.00;;;;;;;;5214287;28;8784;-82
2022/11/05 04:17:28;;;;;;;;;7.80;7.80;;;;;;;;5181437;28;8795;-83
2022/11/05 04:25:45;;;;;;;;;1.00;1.00;;;;;;;;5201889;28;9519;-80
2022/11/05 04:28:17;;;;;;;;;1.40;1.40;;;;;;;;5218764;28;8783;-80
2022/11/05 04:30:48;;;;;;;;;14.00;12.60;;;;;;;;5222163;28;8779;-80
2022/11/05 04:33:37;;;;;;;;;8.80;8.00;;;;;;;;5209204;28;8809;-80
2022/11/05 04:36:26;;;;;;;;;4.00;4.00;;;;;;;;5202820;28;8784;-76
2022/11/05 04:38:57;;;;;;;;;24.40;24.40;;;;;;;;5201444;28;8916;-79
2022/11/05 04:41:28;;;;;;;;;16.20;16.20;;;;;;;;5201324;28;8797;-81
2022/11/05 04:43:59;;;;;;;;;7.00;6.80;;;;;;;;5200921;28;8893;-77
2022/11/05 04:46:30;;;;;;;;;26.25;26.25;;;;;;;;5201768;28;8777;-79
2022/11/05 04:49:01;;;;;;;;;20.60;20.40;;;;;;;;5202266;28;10037;-79
2022/11/05 04:51:32;;;;;;;;;39.20;38.20;;;;;;;;5188027;28;8819;-77
2022/11/05 04:54:04;;;;;;;;;24.75;21.50;;;;;;;;5204346;28;8828;-78
2022/11/05 04:56:35;;;;;;;;;10.60;10.00;;;;;;;;5168202;28;11677;-83
2022/11/05 04:59:06;;;;;;;;;4.80;4.80;;;;;;;;5201280;28;9574;-85
2022/11/05 05:01:37;;;;;;;;;9.00;7.80;;;;;;;;5184968;28;8818;-76
2022/11/05 05:04:27;;;;;;;;;22.40;21.00;;;;;;;;5180480;28;8800;-81
2022/11/05 05:06:58;;;;;;;;;16.80;15.80;;;;;;;;5166408;28;8888;-80
2022/11/05 05:09:29;;;;;;;;;20.40;19.40;;;;;;;;5200065;28;8852;-77
2022/11/05 05:12:01;;;;;;;;;22.00;21.20;;;;;;;;5184805;28;8776;-79
2022/11/05 05:14:32;;;;;;;;;16.80;16.80;;;;;;;;5221070;28;8850;-77
2022/11/05 05:17:03;;;;;;;;;20.00;19.00;;;;;;;;5197702;28;8817;-78
2022/11/05 05:21:37;;;;;;;;;8.40;8.40;;;;;;;;5195762;28;8841;-76
2022/11/05 05:22:50;;;;;;;;;12.80;12.40;;;;;;;;5178859;28;8911;-75
2022/11/05 05:25:40;;;;;;;;;2.20;2.20;;;;;;;;5178416;28;8827;-77
2022/11/05 05:28:10;;;;;;;;;7.50;7.50;;;;;;;;5218184;28;8798;-77
2022/11/05 05:30:42;;;;;;;;;6.60;6.60;;;;;;;;5223550;28;8803;-77
2022/11/05 05:33:13;;;;;;;;;10.40;10.40;;;;;;;;5187966;28;8823;-76
2022/11/05 05:35:44;;;;;;;;;2.00;2.00;;;;;;;;5220650;27;8994;-80
2022/11/05 05:38:34;;;;;;;;;8.00;7.80;;;;;;;;5192062;28;8789;-76
2022/11/05 05:41:05;;;;;;;;;11.00;10.60;;;;;;;;5181524;28;8789;-72
2022/11/05 05:43:37;;;;;;;;;12.00;12.00;;;;;;;;5198305;28;8804;-74
2022/11/05 05:46:12;;;;;;;;;16.00;16.00;;;;;;;;5180799;28;8793;-75
2022/11/05 05:48:47;;;;;;;;;21.60;21.60;;;;;;;;5164321;28;8792;-74
2022/11/05 05:51:36;;;;;;;;;12.60;12.60;;;;;;;;5191531;28;8847;-74
2022/11/05 05:54:09;;;;;;;;;21.20;21.20;;;;;;;;5192202;28;8833;-76
2022/11/05 05:56:43;;;;;;;;;18.60;17.20;;;;;;;;5195093;28;8805;-75
2022/11/05 05:59:14;;;;;;;;;8.40;8.20;;;;;;;;5177797;28;8809;-76
2022/11/05 06:01:46;;;;;;;;;15.80;15.80;;;;;;;;5177099;28;8831;-74
2022/11/05 06:04:17;;;;;;;;;28.20;24.80;;;;;;;;5183219;28;8833;-78
2022/11/05 06:06:49;;;;;;;;;22.80;22.40;;;;;;;;5211624;28;9545;-79
2022/11/05 06:09:20;;;;;;;;;10.00;9.20;;;;;;;;5184799;28;8807;-76
2022/11/05 06:11:51;;;;;;;;;9.20;9.20;;;;;;;;5182642;28;8804;-78
2022/11/05 06:14:22;;;;;;;;;13.20;13.20;;;;;;;;5185557;28;8842;-78
2022/11/05 06:16:53;;;;;;;;;19.20;16.00;;;;;;;;5168680;28;9557;-77
2022/11/05 06:19:25;;;;;;;;;13.60;13.60;;;;;;;;5165653;28;8812;-78
2022/11/05 06:21:56;;;;;;;;;4.00;4.00;;;;;;;;5166944;28;8807;-78
2022/11/05 06:24:27;;;;;;;;;16.00;16.00;;;;;;;;5167119;28;8811;-78
2022/11/05 06:26:58;;;;;;;;;10.00;10.00;;;;;;;;5181386;28;8823;-78
2022/11/05 06:29:29;;;;;;;;;16.80;16.80;;;;;;;;5182565;28;8794;-78
2022/11/05 06:32:00;;;;;;;;;9.60;9.60;;;;;;;;5182550;28;8799;-78
2022/11/05 06:34:31;;;;;;;;;5.20;5.20;;;;;;;;5182219;28;8818;-78
2022/11/05 06:37:21;;;;;;;;;10.40;10.40;;;;;;;;5168574;28;8783;-78
2022/11/05 06:39:52;;;;;;;;;10.60;10.60;;;;;;;;5182370;28;8780;-77
2022/11/05 06:42:23;;;;;;;;;5.40;5.40;;;;;;;;5182815;28;8792;-78
2022/11/05 06:44:55;;;;;;;;;2.40;2.40;;;;;;;;5166959;28;8834;-77
2022/11/05 06:47:26;;;;;;;;;5.00;5.00;;;;;;;;5184827;28;8784;-78
2022/11/05 06:49:57;;;;;;;;;8.00;8.00;;;;;;;;5185842;28;8800;-79
2022/11/05 06:52:30;;;;;;;;;4.00;4.00;;;;;;;;5168411;28;8872;-78
2022/11/05 06:55:01;;;;;;;;;12.40;11.40;;;;;;;;5182882;28;8784;-78
2022/11/05 06:57:36;;;;;;;;;6.00;5.40;;;;;;;;5150943;28;8780;-79
2022/11/05 07:00:25;;;;;;;;;16.40;16.40;;;;;;;;5182916;28;9544;-79
2022/11/05 07:03:15;;;;;;;;;11.60;9.80;;;;;;;;5182937;28;8796;-79
2022/11/05 07:05:48;;;;;;;;;13.60;12.80;;;;;;;;5166416;28;8824;-77
2022/11/05 07:08:19;;;;;;;;;16.20;15.40;;;;;;;;5166929;28;8796;-77
2022/11/05 07:10:50;;;;;;;;;8.20;8.20;;;;;;;;5166495;28;8780;-77
2022/11/05 07:13:21;;;;;;;;;7.00;7.00;;;;;;;;5182497;28;8795;-78
2022/11/05 07:16:10;;;;;;;;;9.60;9.60;;;;;;;;5167858;28;8802;-78
2022/11/05 07:19:00;;;;;;;;;9.20;9.20;;;;;;;;5182024;28;8835;-78
2022/11/05 07:21:31;;;;;;;;;15.00;14.20;;;;;;;;5183602;28;8787;-78
2022/11/05 07:24:20;;;;;;;;;10.00;9.60;;;;;;;;5168634;28;8812;-78
2022/11/05 07:26:51;;;;;;;;;19.60;19.60;;;;;;;;5182084;28;8915;-78
2022/11/05 07:29:23;;;;;;;;;30.20;28.80;;;;;;;;5149677;28;8807;-78
2022/11/05 07:31:54;;;;;;;;;26.60;24.40;;;;;;;;5165870;28;8783;-79
2022/11/05 07:34:25;;;;;;;;;23.20;23.00;;;;;;;;5165866;28;8788;-78
2022/11/05 07:36:57;;;;;;;;;15.20;15.00;;;;;;;;5165984;28;8796;-78
2022/11/05 07:39:28;;;;;;;;;16.40;16.40;;;;;;;;5165834;28;8784;-78
2022/11/05 07:41:59;;;;;;;;;7.40;7.40;;;;;;;;5165738;28;8792;-78
2022/11/05 07:44:36;;;;;;;;;3.00;2.00;;;;;;;;5182406;28;8942;-77
2022/11/05 07:47:07;;;;;;;;;10.00;9.80;;;;;;;;5165727;28;8784;-78
2022/11/05 07:49:38;;;;;;;;;10.80;10.80;;;;;;;;5165797;28;8792;-79
2022/11/05 07:52:10;;;;;;;;;13.80;13.80;;;;;;;;5165533;28;8788;-77
2022/11/05 07:55:00;;;;;;;;;8.00;8.00;;;;;;;;5168234;28;8808;-79
2022/11/05 07:57:31;;;;;;;;;9.40;8.40;;;;;;;;5181968;28;8977;-78
2022/11/05 08:00:02;;;;;;;;;5.20;5.20;;;;;;;;5181597;28;9542;-78
2022/11/05 08:02:43;;;;;;;;;4.60;4.60;;;;;;;;5182113;28;8912;-78
2022/11/05 08:05:14;;;;;;;;;9.50;9.50;;;;;;;;5181660;28;9498;-78
2022/11/05 08:07:45;;;;;;;;;14.80;14.80;;;;;;;;5181505;28;11407;-77
2022/11/05 08:10:16;;;;;;;;;12.00;12.00;;;;;;;;5165206;28;8810;-77
2022/11/05 08:12:47;;;;;;;;;2.00;2.00;;;;;;;;5175124;28;11586;-77
2022/11/05 08:15:18;;;;;;;;;3.40;3.40;;;;;;;;5202893;28;10231;-78
2022/11/05 08:17:56;;;;;;;;;15.20;15.20;;;;;;;;5203897;28;8799;-77
2022/11/05 08:20:27;;;;;;;;;76.60;63.60;;;;;;;;5196702;28;8825;-77
2022/11/05 08:22:58;;;;;;;;;8.60;8.60;;;;;;;;5211940;28;8885;-80
2022/11/05 08:25:47;;;;;;;;;10.80;10.80;;;;;;;;5197831;28;8806;-82
2022/11/05 08:28:36;;;;;;;;;3.80;3.80;;;;;;;;5196670;28;8798;-78
2022/11/05 08:31:07;;;;;;;;;6.75;6.75;;;;;;;;5184480;28;8798;-78
2022/11/05 08:33:38;;;;;;;;;9.60;9.60;;;;;;;;5169004;28;11374;-78
2022/11/05 08:36:09;;;;;;;;;16.60;16.60;;;;;;;;5168623;28;8793;-77
2022/11/05 08:38:40;;;;;;;;;4.75;4.75;;;;;;;;5169002;28;8846;-76
2022/11/05 08:41:11;;;;;;;;;3.75;3.75;;;;;;;;5168690;28;11438;-79
2022/11/05 08:43:42;;;;;;;;;6.40;6.40;;;;;;;;5200691;28;9956;-75
2022/11/05 08:46:33;;;;;;;;;20.80;20.00;;;;;;;;5197261;28;8784;-76
2022/11/05 08:49:04;;;;;;;;;12.00;12.00;;;;;;;;5194446;28;8794;-77
2022/11/05 08:51:35;;;;;;;;;8.00;7.60;;;;;;;;5169440;28;8816;-77
2022/11/05 08:54:06;;;;;;;;;42.75;41.00;;;;;;;;5188272;28;8797;-75
2022/11/05 08:56:55;;;;;;;;;38.20;36.80;;;;;;;;5165228;28;11517;-76
2022/11/05 08:59:28;;;;;;;;;13.80;13.80;;;;;;;;5162826;28;8792;-77
2022/11/05 09:01:59;;;;;;;;;22.40;22.40;;;;;;;;5212781;28;8811;-76
2022/11/05 09:04:30;;;;;;;;;20.75;19.00;;;;;;;;5182292;28;8939;-76
2022/11/05 09:07:01;;;;;;;;;28.20;27.00;;;;;;;;5203136;28;9321;-76
2022/11/05 09:09:51;;;;;;;;;15.80;15.40;;;;;;;;5185889;28;8816;-76
2022/11/05 09:12:22;;;;;;;;;14.00;14.00;;;;;;;;5201502;28;9913;-77
2022/11/05 09:14:53;;;;;;;;;24.60;23.20;;;;;;;;5207472;28;11470;-76
2022/11/05 09:17:24;;;;;;;;;8.60;8.60;;;;;;;;5167033;28;8821;-76
2022/11/05 09:20:13;;;;;;;;;21.80;18.20;;;;;;;;5180046;28;8823;-77
2022/11/05 09:22:45;;;;;;;;;19.00;17.60;;;;;;;;5180443;28;8798;-78
2022/11/05 09:25:16;;;;;;;;;7.60;7.60;;;;;;;;5165180;28;8819;-79
2022/11/05 09:27:47;;;;;;;;;9.00;8.20;;;;;;;;5167212;28;8886;-77
2022/11/05 09:30:18;;;;;;;;;11.40;10.80;;;;;;;;5184201;28;8797;-77
2022/11/05 09:32:49;;;;;;;;;9.00;9.00;;;;;;;;5184305;28;8781;-79
2022/11/05 09:35:20;;;;;;;;;8.00;5.25;;;;;;;;5168106;28;8805;-76
2022/11/05 09:37:51;;;;;;;;;7.50;6.50;;;;;;;;5182979;28;10774;-77
2022/11/05 09:40:24;;;;;;;;;3.25;2.00;;;;;;;;5181464;28;11599;-76
2022/11/05 09:42:55;;;;;;;;;9.00;9.00;;;;;;;;5200851;28;12342;-77
2022/11/05 09:45:27;;;;;;;;;13.40;12.20;;;;;;;;5188079;28;8946;-76
2022/11/05 09:48:00;;;;;;;;;1.80;1.80;;;;;;;;5204275;28;8783;-77
2022/11/05 09:50:39;;;;;;;;;3.00;3.00;;;;;;;;5188161;28;8791;-78
2022/11/05 09:53:14;;;;;;;;;4.60;2.40;;;;;;;;5188635;28;8782;-82
2022/11/05 09:56:03;;;;;;;;;7.60;7.60;;;;;;;;5207207;28;8799;-78
2022/11/05 09:58:44;;;;;;;;;5.60;5.60;;;;;;;;5203832;28;9518;-78
2022/11/05 10:01:27;;;;;;;;;6.00;6.00;;;;;;;;5204593;28;8821;-81
2022/11/05 10:03:59;;;;;;;;;7.00;7.00;;;;;;;;5193531;28;8791;-78
2022/11/05 10:07:00;;;;;;;;;13.00;13.00;;;;;;;;5199332;28;8870;-78
2022/11/05 10:09:30;;;;;;;;;15.00;14.00;;;;;;;;5184086;28;8797;-79
2022/11/05 10:12:23;;;;;;;;;16.20;15.60;;;;;;;;5186594;28;8932;-79
2022/11/05 10:15:04;;;;;;;;;26.80;25.40;;;;;;;;5201888;28;8893;-77
2022/11/05 10:17:36;;;;;;;;;19.40;19.40;;;;;;;;5200858;28;8774;-77
2022/11/05 10:20:13;;;;;;;;;8.80;8.80;;;;;;;;5200068;28;8878;-77
2022/11/05 10:22:45;;;;;;;;;30.60;27.60;;;;;;;;5200400;28;8766;-79
2022/11/05 10:25:17;;;;;;;;;21.00;20.40;;;;;;;;5199287;28;8883;-76
2022/11/05 10:27:52;;;;;;;;;18.60;16.80;;;;;;;;5183197;28;8781;-76
2022/11/05 10:30:23;;;;;;;;;13.40;13.00;;;;;;;;5201656;28;9718;-79
2022/11/05 10:32:56;;;;;;;;;14.00;14.00;;;;;;;;5198738;28;8824;-83
2022/11/05 10:35:29;;;;;;;;;1.00;1.00;;;;;;;;5184143;28;8779;-78
2022/11/05 10:38:19;;;;;;;;;3.40;3.40;;;;;;;;5196813;28;9660;-75
2022/11/05 10:40:50;;;;;;;;;4.20;4.20;;;;;;;;5160332;28;8934;-76
2022/11/05 10:43:24;;;;;;;;;1.00;1.00;;;;;;;;5179255;28;8783;-77
2022/11/05 10:46:14;;;;;;;;;3.80;3.80;;;;;;;;5181693;28;8795;-78
2022/11/05 10:48:56;;;;;;;;;1.80;1.80;;;;;;;;5162791;28;8808;-82
2022/11/05 10:51:27;;;;;;;;;10.60;10.60;;;;;;;;5165986;28;8776;-77
2022/11/05 10:54:09;;;;;;;;;11.20;10.20;;;;;;;;5166090;28;8885;-76
2022/11/05 10:56:40;;;;;;;;;8.20;8.20;;;;;;;;5188775;28;8794;-76
2022/11/05 10:59:29;;;;;;;;;6.20;6.20;;;;;;;;5189296;28;8777;-76
2022/11/05 11:02:22;;;;;;;;;2.00;1.60;;;;;;;;5189135;28;8809;-83
2022/11/05 11:04:54;;;;;;;;;5.60;5.60;;;;;;;;5186869;28;8821;-77
2022/11/05 11:07:26;;;;;;;;;10.60;10.60;;;;;;;;5203852;28;9507;-75
2022/11/05 11:09:57;;;;;;;;;14.60;13.80;;;;;;;;5186864;28;8789;-79
2022/11/05 11:12:48;;;;;;;;;21.40;21.40;;;;;;;;5204012;28;8812;-75
2022/11/05 11:15:19;;;;;;;;;10.00;8.20;;;;;;;;5204046;28;9575;-76
2022/11/05 11:17:50;;;;;;;;;14.50;14.00;;;;;;;;5185777;28;8842;-77
2022/11/05 11:20:21;;;;;;;;;2.20;2.20;;;;;;;;5182261;28;8820;-78
2022/11/05 11:23:00;;;;;;;;;8.40;6.00;;;;;;;;5182480;28;8772;-77
2022/11/05 11:25:47;;;;;;;;;18.80;18.80;;;;;;;;5169647;28;8812;-80
2022/11/05 11:28:23;;;;;;;;;17.00;17.00;;;;;;;;5198194;28;8795;-78
2022/11/05 11:31:01;;;;;;;;;22.00;21.20;;;;;;;;5182149;28;8832;-79
2022/11/05 11:33:33;;;;;;;;;25.20;24.20;;;;;;;;5182220;28;8803;-77
2022/11/05 11:36:26;;;;;;;;;24.80;23.40;;;;;;;;5197335;28;9644;-77
2022/11/05 11:39:01;;;;;;;;;26.00;25.60;;;;;;;;5166483;28;8788;-76
2022/11/05 11:41:37;;;;;;;;;10.40;10.40;;;;;;;;5181844;28;8780;-76
2022/11/05 11:44:15;;;;;;;;;13.00;13.00;;;;;;;;5181774;28;8869;-76
2022/11/05 11:46:49;;;;;;;;;9.40;9.40;;;;;;;;5181743;28;8914;-77
2022/11/05 11:49:35;;;;;;;;;24.40;23.40;;;;;;;;5174277;28;9651;-79
2022/11/05 11:52:10;;;;;;;;;21.60;20.80;;;;;;;;5168088;28;8827;-76
2022/11/05 11:54:41;;;;;;;;;21.60;21.00;;;;;;;;5182101;28;8783;-80
2022/11/05 11:57:20;;;;;;;;;22.40;21.40;;;;;;;;5190047;28;8909;-78
2022/11/05 11:59:55;;;;;;;;;15.20;14.60;;;;;;;;5206480;28;8775;-73
2022/11/05 12:02:45;;;;;;;;;16.60;16.20;;;;;;;;5222439;28;8811;-75
2022/11/05 12:05:21;;;;;;;;;13.20;13.20;;;;;;;;5206009;28;8811;-74
2022/11/05 12:08:20;;;;;;;;;21.80;19.20;;;;;;;;5222574;28;9533;-74
2022/11/05 12:11:04;;;;;;;;;17.40;17.40;;;;;;;;5223155;28;8779;-74
2022/11/05 12:13:41;;;;;;;;;38.00;35.80;;;;;;;;5197243;28;8807;-74
2022/11/05 12:16:31;;;;;;;;;49.40;41.80;;;;;;;;5181090;28;8780;-73
2022/11/05 12:19:12;;;;;;;;;14.80;14.80;;;;;;;;5165149;28;8792;-72
2022/11/05 12:21:57;;;;;;;;;20.40;20.40;;;;;;;;5168902;28;8789;-74
2022/11/05 12:24:51;;;;;;;;;27.60;27.40;;;;;;;;5201459;28;8809;-73
2022/11/05 12:27:32;;;;;;;;;34.80;31.60;;;;;;;;5181023;28;8796;-72
2022/11/05 12:30:12;;;;;;;;;19.60;19.60;;;;;;;;5217991;28;8936;-73
2022/11/05 12:33:02;;;;;;;;;9.40;9.40;;;;;;;;5205321;28;8801;-73
2022/11/05 12:35:44;;;;;;;;;34.00;31.40;;;;;;;;5181360;28;8773;-74
2022/11/05 12:38:28;;;;;;;;;44.80;37.80;;;;;;;;5181086;28;8922;-73
2022/11/05 12:41:14;;;;;;;;;40.00;37.60;;;;;;;;5193523;28;8809;-73
2022/11/05 12:43:54;;;;;;;;;25.20;24.40;;;;;;;;5201177;28;8770;-73
2022/11/05 12:46:31;;;;;;;;;29.80;29.80;;;;;;;;5184957;28;9531;-73
2022/11/05 12:49:08;;;;;;;;;9.00;9.00;;;;;;;;5201887;28;9607;-72
2022/11/05 12:51:54;;;;;;;;;24.60;24.60;;;;;;;;5168568;28;8835;-74
2022/11/05 12:54:35;;;;;;;;;17.00;16.80;;;;;;;;5214336;28;8791;-73
2022/11/05 12:57:09;;;;;;;;;6.60;6.60;;;;;;;;5221858;28;8794;-73
2022/11/05 12:59:48;;;;;;;;;9.80;9.80;;;;;;;;5222797;28;8759;-73
2022/11/05 13:02:56;;;;;;;;;12.40;12.40;;;;;;;;5223017;28;8829;-74
2022/11/05 13:05:35;;;;;;;;;22.80;21.40;;;;;;;;5211922;28;8808;-74
2022/11/05 13:08:28;;;;;;;;;21.60;19.60;;;;;;;;5199129;28;9341;-73
2022/11/05 13:11:05;;;;;;;;;21.20;21.20;;;;;;;;5184977;28;9623;-74
2022/11/05 13:13:38;;;;;;;;;30.20;29.60;;;;;;;;5207717;28;8791;-73
2022/11/05 13:16:15;;;;;;;;;14.40;13.40;;;;;;;;5222496;28;8794;-73
2022/11/05 13:18:53;;;;;;;;;25.20;24.20;;;;;;;;5222271;28;9548;-75
2022/11/05 13:21:27;;;;;;;;;27.00;26.80;;;;;;;;5205778;28;8860;-74
2022/11/05 13:24:07;;;;;;;;;34.20;32.80;;;;;;;;5200425;28;8836;-73
2022/11/05 13:26:44;;;;;;;;;32.40;30.80;;;;;;;;5200597;28;9512;-73
2022/11/05 13:29:19;;;;;;;;;29.80;28.40;;;;;;;;5200593;28;8806;-73
2022/11/05 13:31:53;;;;;;;;;62.20;48.60;;;;;;;;5201080;28;8787;-73
2022/11/05 13:34:24;;;;;;;;;57.20;46.00;;;;;;;;5216905;28;8806;-74
2022/11/05 13:40:08;;;;;;;;;22.20;21.20;;;;;;;;5221053;28;8851;-75
2022/11/05 13:42:57;;;;;;;;;15.60;15.00;;;;;;;;5204840;28;9497;-73
2022/11/05 13:45:28;;;;;;;;;27.20;26.80;;;;;;;;5222218;28;8802;-73
2022/11/05 13:48:11;;;;;;;;;28.25;27.25;;;;;;;;5215982;28;8781;-74
2022/11/05 13:50:50;;;;;;;;;31.40;29.00;;;;;;;;5200180;28;8793;-74
2022/11/05 13:53:33;;;;;;;;;15.20;15.20;;;;;;;;5208948;28;8799;-74
2022/11/05 13:56:04;;;;;;;;;15.40;15.40;;;;;;;;5204075;28;8791;-73
2022/11/05 13:58:44;;;;;;;;;34.20;33.00;;;;;;;;5222286;28;8847;-73
2022/11/05 14:01:24;;;;;;;;;14.00;10.60;;;;;;;;5204557;28;8811;-73
2022/11/05 14:03:55;;;;;;;;;21.40;21.20;;;;;;;;5220982;28;8771;-72
2022/11/05 14:06:31;;;;;;;;;21.80;21.60;;;;;;;;5220412;28;8797;-72
2022/11/05 14:09:06;;;;;;;;;21.00;21.00;;;;;;;;5206562;28;8777;-74
2022/11/05 14:11:43;;;;;;;;;22.00;20.00;;;;;;;;5201778;28;8782;-76
2022/11/05 14:14:18;;;;;;;;;33.60;31.80;;;;;;;;5199218;28;8790;-74
2022/11/05 14:16:52;;;;;;;;;16.20;15.40;;;;;;;;5204067;28;8791;-74
2022/11/05 14:19:28;;;;;;;;;11.80;11.80;;;;;;;;5203600;28;8814;-73
2022/11/05 14:22:19;;;;;;;;;10.00;8.60;;;;;;;;5184166;28;8928;-73
2022/11/05 14:24:50;;;;;;;;;15.00;15.00;;;;;;;;5201718;28;8808;-73
2022/11/05 14:27:39;;;;;;;;;12.00;12.00;;;;;;;;5203662;28;8804;-73
2022/11/05 14:30:28;;;;;;;;;17.25;17.25;;;;;;;;5204323;28;8785;-73
2022/11/05 14:33:04;;;;;;;;;19.00;18.00;;;;;;;;5193604;28;8779;-72
2022/11/05 14:35:36;;;;;;;;;15.00;15.00;;;;;;;;5223929;28;8804;-72
2022/11/05 14:38:26;;;;;;;;;22.60;22.40;;;;;;;;5225278;28;8787;-72
2022/11/05 14:40:59;;;;;;;;;16.00;16.00;;;;;;;;5207460;28;8771;-73
2022/11/05 14:43:32;;;;;;;;;13.40;13.40;;;;;;;;5207253;28;8771;-73
2022/11/05 14:46:07;;;;;;;;;25.40;24.00;;;;;;;;5224762;28;8803;-74
2022/11/05 14:48:45;;;;;;;;;6.00;6.00;;;;;;;;5222843;28;8859;-74
2022/11/05 14:51:22;;;;;;;;;10.20;10.20;;;;;;;;5223637;28;8778;-73
2022/11/05 14:54:18;;;;;;;;;24.40;24.40;;;;;;;;5206124;28;9585;-74
2022/11/05 14:56:51;;;;;;;;;19.60;17.40;;;;;;;;5202805;28;8769;-73
2022/11/05 14:59:27;;;;;;;;;29.00;27.80;;;;;;;;5186528;28;8791;-73
2022/11/05 15:02:14;;;;;;;;;16.00;15.00;;;;;;;;5202912;28;8810;-74
2022/11/05 15:04:46;;;;;;;;;14.00;14.00;;;;;;;;5202740;28;8893;-73
2022/11/05 15:07:23;;;;;;;;;11.20;11.20;;;;;;;;5206176;28;8949;-74
2022/11/05 15:10:09;;;;;;;;;4.80;4.80;;;;;;;;5224201;28;8792;-74
2022/11/05 15:12:45;;;;;;;;;4.60;4.60;;;;;;;;5217414;28;8800;-74
2022/11/05 15:15:19;;;;;;;;;6.00;6.00;;;;;;;;5202204;28;8797;-77
2022/11/05 15:17:57;;;;;;;;;6.00;6.00;;;;;;;;5195323;28;8856;-74
2022/11/05 15:20:41;;;;;;;;;27.00;24.40;;;;;;;;5171523;28;8802;-72
2022/11/05 15:23:14;;;;;;;;;22.80;22.80;;;;;;;;5198813;28;8870;-72
2022/11/05 15:25:51;;;;;;;;;6.00;6.00;;;;;;;;5200157;28;9025;-71
2022/11/05 15:28:24;;;;;;;;;7.80;7.80;;;;;;;;5212051;28;8974;-72
2022/11/05 15:30:57;;;;;;;;;13.80;13.60;;;;;;;;5199600;28;8805;-73
2022/11/05 15:33:28;;;;;;;;;4.40;4.40;;;;;;;;5187301;28;8808;-72
2022/11/05 15:36:14;;;;;;;;;9.40;9.40;;;;;;;;5200975;28;8865;-73
2022/11/05 15:38:45;;;;;;;;;5.40;5.40;;;;;;;;5180513;28;8791;-73
2022/11/05 15:41:19;;;;;;;;;8.50;8.50;;;;;;;;5183028;28;8790;-72
2022/11/05 15:43:50;;;;;;;;;14.00;13.60;;;;;;;;5205242;28;8801;-72
2022/11/05 15:46:27;;;;;;;;;5.80;5.80;;;;;;;;5198817;28;8819;-74
2022/11/05 15:49:01;;;;;;;;;9.40;9.20;;;;;;;;5202479;28;8807;-70
2022/11/05 15:51:32;;;;;;;;;8.00;8.00;;;;;;;;5203367;28;8977;-72
2022/11/05 15:54:03;;;;;;;;;5.00;5.00;;;;;;;;5202774;28;8777;-72
2022/11/05 15:56:37;;;;;;;;;10.20;10.20;;;;;;;;5201979;28;8797;-71
2022/11/05 15:59:15;;;;;;;;;10.60;10.60;;;;;;;;5185464;28;8786;-72
2022/11/05 16:01:48;;;;;;;;;8.40;8.40;;;;;;;;5200172;28;8956;-72
2022/11/05 16:04:21;;;;;;;;;12.20;12.20;;;;;;;;5193870;28;8819;-74
2022/11/05 16:06:57;;;;;;;;;20.40;17.20;;;;;;;;5196519;28;8791;-73
2022/11/05 16:09:29;;;;;;;;;12.20;12.20;;;;;;;;5205597;28;8762;-73
2022/11/05 16:12:12;;;;;;;;;10.80;10.80;;;;;;;;5215346;28;9554;-73
2022/11/05 16:14:57;;;;;;;;;8.00;8.00;;;;;;;;5184155;28;8878;-73
2022/11/05 16:17:45;;;;;;;;;8.00;8.00;;;;;;;;5185280;28;8792;-73
2022/11/05 16:20:17;;;;;;;;;8.20;8.20;;;;;;;;5188751;28;8965;-73
2022/11/05 16:23:21;;;;;;;;;10.20;10.20;;;;;;;;5186713;28;8785;-74